createdAt,value
2022-11-15T00:00:21.396Z,4.30
2022-11-15T00:03:09.009Z,4.77
2022-11-15T00:05:58.104Z,3.83
2022-11-15T00:08:46.087Z,4.00
2022-11-15T00:11:33.701Z,3.67
2022-11-15T00:14:21.274Z,3.93
2022-11-15T00:17:08.863Z,4.33
2022-11-15T00:19:56.833Z,4.50
2022-11-15T00:22:45.652Z,4.07
2022-11-15T00:25:33.733Z,4.20
2022-11-15T00:28:21.294Z,4.20
2022-11-15T00:31:09.878Z,4.30
2022-11-15T00:33:57.535Z,4.20
2022-11-15T00:36:45.045Z,4.33
2022-11-15T00:39:34.119Z,4.00
2022-11-15T00:42:22.357Z,4.40
2022-11-15T00:45:10.934Z,4.43
2022-11-15T00:47:58.934Z,4.47
2022-11-15T00:50:46.832Z,4.10
2022-11-15T00:53:34.831Z,4.10
2022-11-15T00:56:23.852Z,4.10
2022-11-15T00:59:11.595Z,3.70
2022-11-15T01:01:59.284Z,4.07
2022-11-15T01:04:47.295Z,3.80
2022-11-15T01:07:35.023Z,4.37
2022-11-15T01:10:22.998Z,4.30
2022-11-15T01:13:13.699Z,3.70
2022-11-15T01:16:01.387Z,4.43
2022-11-15T01:18:49.023Z,5.00
2022-11-15T01:21:36.734Z,4.60
2022-11-15T01:24:24.554Z,4.30
2022-11-15T01:27:12.418Z,4.23
2022-11-15T01:30:01.321Z,4.13
2022-11-15T01:32:49.179Z,3.93
2022-11-15T01:35:36.769Z,4.30
2022-11-15T01:38:24.851Z,4.03
2022-11-15T01:41:17.941Z,4.70
2022-11-15T01:44:24.294Z,4.80
2022-11-15T01:47:15.511Z,4.73
2022-11-15T01:50:05.470Z,4.57
2022-11-15T01:52:53.230Z,4.30
2022-11-15T01:55:40.931Z,5.10
2022-11-15T01:58:28.404Z,4.90
2022-11-15T02:01:16.481Z,5.07
2022-11-15T02:04:09.947Z,4.00
2022-11-15T02:06:57.892Z,4.93
2022-11-15T02:09:46.499Z,4.30
2022-11-15T02:12:34.753Z,4.30
2022-11-15T02:15:22.396Z,4.00
2022-11-15T02:18:14.736Z,4.10
2022-11-15T02:21:10.045Z,4.07
2022-11-15T02:24:11.014Z,3.63
2022-11-15T02:27:19.564Z,3.83
2022-11-15T02:30:19.374Z,3.50
2022-11-15T02:33:11.412Z,3.90
2022-11-15T02:36:01.937Z,4.40
2022-11-15T02:38:54.457Z,4.03
2022-11-15T02:41:45.096Z,3.47
2022-11-15T02:44:34.833Z,3.57
2022-11-15T02:47:25.039Z,3.80
2022-11-15T02:50:15.053Z,2.90
2022-11-15T02:53:02.885Z,3.47
2022-11-15T02:55:51.643Z,3.30
2022-11-15T02:58:49.870Z,3.17
2022-11-15T03:01:41.776Z,3.10
2022-11-15T03:04:33.850Z,3.47
2022-11-15T03:07:23.094Z,3.50
2022-11-15T03:10:13.640Z,3.60
2022-11-15T03:13:03.839Z,2.77
2022-11-15T03:15:53.910Z,3.63
2022-11-15T03:18:43.839Z,3.80
2022-11-15T03:21:33.558Z,4.13
2022-11-15T03:24:26.024Z,3.20
2022-11-15T03:27:16.853Z,3.33
2022-11-15T03:30:07.303Z,3.60
2022-11-15T03:32:57.552Z,4.20
2022-11-15T03:35:47.731Z,3.40
2022-11-15T03:38:37.349Z,3.60
2022-11-15T03:41:26.600Z,3.63
2022-11-15T03:44:17.226Z,3.70
2022-11-15T03:47:07.026Z,3.70
2022-11-15T03:49:56.324Z,3.20
2022-11-15T03:52:44.323Z,3.13
2022-11-15T03:55:34.988Z,3.40
2022-11-15T03:58:22.658Z,3.60
2022-11-15T04:01:10.819Z,3.03
2022-11-15T04:03:58.416Z,3.23
2022-11-15T04:06:46.151Z,2.93
2022-11-15T04:09:33.904Z,3.10
2022-11-15T04:12:32.002Z,3.50
2022-11-15T04:15:21.170Z,2.90
2022-11-15T04:18:08.915Z,3.80
2022-11-15T04:21:14.019Z,3.63
2022-11-15T04:24:17.111Z,3.77
2022-11-15T04:27:05.002Z,4.20
2022-11-15T04:29:54.050Z,4.23
2022-11-15T04:32:41.982Z,3.80
2022-11-15T04:35:30.596Z,4.00
2022-11-15T04:38:18.267Z,4.00
2022-11-15T04:41:06.209Z,3.93
2022-11-15T04:43:53.808Z,3.50
2022-11-15T04:46:43.113Z,3.27
2022-11-15T04:49:31.080Z,4.17
2022-11-15T04:52:19.071Z,4.13
2022-11-15T04:55:08.388Z,3.80
2022-11-15T04:58:02.545Z,3.70
2022-11-15T05:00:50.288Z,3.73
2022-11-15T05:03:56.729Z,4.10
2022-11-15T05:06:44.860Z,3.80
2022-11-15T05:09:32.883Z,4.00
2022-11-15T05:12:20.344Z,3.97
2022-11-15T05:15:08.390Z,4.17
2022-11-15T05:18:01.243Z,4.07
2022-11-15T05:20:50.505Z,4.20
2022-11-15T05:23:38.096Z,4.20
2022-11-15T05:26:26.158Z,4.50
2022-11-15T05:29:14.075Z,4.23
2022-11-15T05:32:01.623Z,4.30
2022-11-15T05:34:49.466Z,5.03
2022-11-15T05:37:39.077Z,4.07
2022-11-15T05:40:27.016Z,4.53
2022-11-15T05:43:15.200Z,3.90
2022-11-15T05:46:03.478Z,8.90
2022-11-15T05:48:52.256Z,5.03
2022-11-15T05:51:39.693Z,4.67
2022-11-15T05:54:29.329Z,4.30
2022-11-15T05:57:17.199Z,4.63
2022-11-15T06:00:06.112Z,4.60
2022-11-15T06:02:53.982Z,4.70
2022-11-15T06:05:41.598Z,4.93
2022-11-15T06:08:29.198Z,4.87
2022-11-15T06:11:18.264Z,4.23
2022-11-15T06:14:06.176Z,4.57
2022-11-15T06:16:53.945Z,4.87
2022-11-15T06:19:41.675Z,4.27
2022-11-15T06:22:29.439Z,6.33
2022-11-15T06:25:17.444Z,4.10
2022-11-15T06:28:06.733Z,5.10
2022-11-15T06:30:54.206Z,5.47
2022-11-15T06:33:42.275Z,4.27
2022-11-15T06:36:29.904Z,5.33
2022-11-15T06:39:17.666Z,6.00
2022-11-15T06:42:05.701Z,7.80
2022-11-15T06:44:54.712Z,7.77
2022-11-15T06:47:48.113Z,7.93
2022-11-15T06:50:35.830Z,7.30
2022-11-15T06:53:23.705Z,6.00
2022-11-15T06:56:11.778Z,5.43
2022-11-15T06:58:59.707Z,6.20
2022-11-15T07:01:49.064Z,6.87
2022-11-15T07:04:38.283Z,6.93
2022-11-15T07:07:26.316Z,6.57
2022-11-15T07:10:14.247Z,6.53
2022-11-15T07:13:01.864Z,7.07
2022-11-15T07:15:49.486Z,6.63
2022-11-15T07:18:38.816Z,7.17
2022-11-15T07:21:27.831Z,6.03
2022-11-15T07:24:15.883Z,5.67
2022-11-15T07:27:03.491Z,10.60
2022-11-15T07:29:51.111Z,7.17
2022-11-15T07:32:38.773Z,6.77
2022-11-15T07:35:28.619Z,7.40
2022-11-15T07:38:16.869Z,7.97
2022-11-15T07:41:05.669Z,9.07
2022-11-15T07:43:54.707Z,8.43
2022-11-15T07:46:42.637Z,10.93
2022-11-15T07:49:30.415Z,11.60
2022-11-15T07:52:19.525Z,9.73
2022-11-15T07:55:07.696Z,10.70
2022-11-15T07:57:55.460Z,10.60
2022-11-15T08:00:43.345Z,11.67
2022-11-15T08:03:31.365Z,10.90
2022-11-15T08:06:19.445Z,12.60
2022-11-15T08:09:08.664Z,11.93
2022-11-15T08:11:56.514Z,11.20
2022-11-15T08:14:44.304Z,17.27
2022-11-15T08:17:34.030Z,15.80
2022-11-15T08:20:21.916Z,17.00
2022-11-15T08:23:09.995Z,12.97
2022-11-15T08:26:03.949Z,15.50
2022-11-15T08:28:51.627Z,12.60
2022-11-15T08:31:39.920Z,11.83
2022-11-15T08:34:27.986Z,13.90
2022-11-15T08:37:15.819Z,17.03
2022-11-15T08:40:03.470Z,13.80
2022-11-15T08:42:53.097Z,11.87
2022-11-15T08:45:40.763Z,9.80
2022-11-15T08:48:28.861Z,11.70
2022-11-15T08:51:16.896Z,11.00
2022-11-15T08:54:04.869Z,10.90
2022-11-15T08:56:52.821Z,8.90
2022-11-15T08:59:42.213Z,10.80
2022-11-15T09:02:30.034Z,7.43
2022-11-15T09:05:17.926Z,8.40
2022-11-15T09:08:19.169Z,9.70
2022-11-15T09:11:13.990Z,8.17
2022-11-15T09:14:01.805Z,7.87
2022-11-15T09:16:50.900Z,6.80
2022-11-15T09:19:39.245Z,8.57
2022-11-15T09:22:27.042Z,11.00
2022-11-15T09:25:14.742Z,8.90
2022-11-15T09:28:02.533Z,7.77
2022-11-15T09:30:50.033Z,6.77
2022-11-15T09:33:39.193Z,7.10
2022-11-15T09:36:27.193Z,5.90
2022-11-15T09:39:15.113Z,8.60
2022-11-15T09:42:21.468Z,6.07
2022-11-15T09:45:16.255Z,6.30
2022-11-15T09:48:25.020Z,6.50
2022-11-15T09:51:17.716Z,3.70
2022-11-15T09:56:44.009Z,5.90
2022-11-15T09:59:24.929Z,4.83
2022-11-15T10:01:59.946Z,2.70
2022-11-15T10:04:29.053Z,2.87
2022-11-15T10:07:01.904Z,2.80
2022-11-15T10:09:35.221Z,2.47
2022-11-15T10:12:04.405Z,3.70
2022-11-15T10:14:34.138Z,2.73
2022-11-15T10:17:22.214Z,2.20
2022-11-15T10:20:02.404Z,1.90
2022-11-15T10:22:38.622Z,2.03
2022-11-15T10:25:19.920Z,3.43
2022-11-15T10:27:53.816Z,2.13
2022-11-15T10:30:23.883Z,2.10
2022-11-15T10:32:53.040Z,2.73
2022-11-15T10:35:23.889Z,2.10
2022-11-15T10:37:54.566Z,2.70
2022-11-15T10:40:24.645Z,2.60
2022-11-15T10:43:08.181Z,2.37
2022-11-15T10:45:37.771Z,2.47
2022-11-15T10:48:27.765Z,3.00
2022-11-15T10:50:57.573Z,3.90
2022-11-15T10:53:31.763Z,6.50
2022-11-15T10:56:02.871Z,7.00
2022-11-15T10:58:37.430Z,7.10
2022-11-15T11:01:17.252Z,6.27
2022-11-15T11:03:47.154Z,4.07
2022-11-15T11:06:18.028Z,2.30
2022-11-15T11:08:59.730Z,1.60
2022-11-15T11:11:46.684Z,2.00
2022-11-15T11:14:16.541Z,1.50
2022-11-15T11:16:47.964Z,2.30
2022-11-15T11:19:35.240Z,2.70
2022-11-15T11:22:06.456Z,2.40
2022-11-15T11:24:39.767Z,1.80
2022-11-15T11:27:26.034Z,1.73
2022-11-15T11:30:04.289Z,2.20
2022-11-15T11:32:39.865Z,2.97
2022-11-15T11:35:14.858Z,2.10
2022-11-15T11:37:48.964Z,1.80
2022-11-15T11:40:27.763Z,1.37
2022-11-15T11:43:00.626Z,3.10
2022-11-15T11:45:35.577Z,1.97
2022-11-15T11:48:10.851Z,2.57
2022-11-15T11:50:40.998Z,2.20
2022-11-15T11:53:14.432Z,2.47
2022-11-15T11:55:46.631Z,1.67
2022-11-15T11:58:17.575Z,1.60
2022-11-15T12:00:53.128Z,1.47
2022-11-15T12:03:25.073Z,2.03
2022-11-15T12:05:57.312Z,1.50
2022-11-15T12:08:31.795Z,1.20
2022-11-15T12:11:04.443Z,1.17
2022-11-15T12:13:37.882Z,1.40
2022-11-15T12:16:10.874Z,1.30
2022-11-15T12:18:40.724Z,1.30
2022-11-15T12:21:10.949Z,1.00
2022-11-15T12:23:42.898Z,1.60
2022-11-15T12:26:15.274Z,1.00
2022-11-15T12:29:05.980Z,1.40
2022-11-15T12:31:39.644Z,1.10
2022-11-15T12:34:17.272Z,1.70
2022-11-15T12:36:47.360Z,1.30
2022-11-15T12:39:17.197Z,1.70
2022-11-15T12:42:07.650Z,1.10
2022-11-15T12:44:55.703Z,1.13
2022-11-15T12:47:26.089Z,1.60
2022-11-15T12:49:55.967Z,1.10
2022-11-15T12:52:25.264Z,1.10
2022-11-15T12:55:03.119Z,2.37
2022-11-15T12:57:37.816Z,1.40
2022-11-15T13:00:28.861Z,1.10
2022-11-15T13:03:16.455Z,1.70
2022-11-15T13:05:59.052Z,1.43
2022-11-15T13:08:41.504Z,1.60
2022-11-15T13:11:25.725Z,1.17
2022-11-15T13:13:56.233Z,1.30
2022-11-15T13:16:25.840Z,1.40
2022-11-15T13:18:56.394Z,1.00
2022-11-15T13:21:44.088Z,1.20
2022-11-15T13:24:15.598Z,1.43
2022-11-15T13:26:45.025Z,1.80
2022-11-15T13:29:22.907Z,1.73
2022-11-15T13:31:52.159Z,2.10
2022-11-15T13:37:34.601Z,1.67
2022-11-15T13:40:19.051Z,1.30
2022-11-15T13:42:48.494Z,1.33
2022-11-15T13:45:21.127Z,1.20
2022-11-15T13:47:54.720Z,1.50
2022-11-15T13:50:25.607Z,1.20
2022-11-15T13:52:55.777Z,1.80
2022-11-15T13:55:25.652Z,1.10
2022-11-15T13:57:56.761Z,1.30
2022-11-15T14:00:33.513Z,1.80
2022-11-15T14:03:09.181Z,5.47
2022-11-15T14:05:39.586Z,7.50
2022-11-15T14:08:24.862Z,7.10
2022-11-15T14:11:09.084Z,6.47
2022-11-15T14:13:39.214Z,6.43
2022-11-15T14:16:22.256Z,6.23
2022-11-15T14:18:52.252Z,6.27
2022-11-15T14:21:22.337Z,6.60
2022-11-15T14:23:51.804Z,6.00
2022-11-15T14:26:38.505Z,6.30
2022-11-15T14:29:22.640Z,7.13
2022-11-15T14:31:53.292Z,6.70
2022-11-15T14:34:23.423Z,5.93
2022-11-15T14:36:52.696Z,6.17
2022-11-15T14:39:22.661Z,7.60
2022-11-15T14:41:51.805Z,6.20
2022-11-15T14:44:22.854Z,6.87
2022-11-15T14:46:53.432Z,5.50
2022-11-15T14:49:22.571Z,6.10
2022-11-15T14:51:52.125Z,4.90
2022-11-15T14:54:22.436Z,4.20
2022-11-15T14:56:51.668Z,5.97
2022-11-15T14:59:20.941Z,4.40
2022-11-15T15:01:49.983Z,6.03
2022-11-15T15:04:20.477Z,5.30
2022-11-15T15:06:49.851Z,6.30
2022-11-15T15:09:19.064Z,5.07
2022-11-15T15:11:48.231Z,5.00
2022-11-15T15:14:17.537Z,4.30
2022-11-15T15:16:46.697Z,4.93
2022-11-15T15:19:15.952Z,4.20
2022-11-15T15:21:46.463Z,4.20
2022-11-15T15:24:17.018Z,4.10
2022-11-15T15:26:45.998Z,4.63
2022-11-15T15:29:15.046Z,4.80
2022-11-15T15:31:44.340Z,4.87
2022-11-15T15:34:16.856Z,4.90
2022-11-15T15:36:47.987Z,6.20
2022-11-15T15:39:17.447Z,4.57
2022-11-15T15:41:46.614Z,4.37
2022-11-15T15:44:15.848Z,5.23
2022-11-15T15:46:44.950Z,4.57
2022-11-15T15:49:14.131Z,3.93
2022-11-15T15:51:43.279Z,6.87
2022-11-15T15:54:14.302Z,4.20
2022-11-15T15:56:43.493Z,4.50
2022-11-15T15:59:12.639Z,4.87
2022-11-15T16:01:41.956Z,4.10
2022-11-15T16:04:11.166Z,4.30
2022-11-15T16:06:43.468Z,3.90
2022-11-15T16:09:16.930Z,4.10
2022-11-15T16:11:47.633Z,4.03
2022-11-15T16:14:16.971Z,4.53
2022-11-15T16:16:46.588Z,4.13
2022-11-15T16:19:15.898Z,4.70
2022-11-15T16:21:45.144Z,3.90
2022-11-15T16:24:15.797Z,4.00
2022-11-15T16:26:45.060Z,3.93
2022-11-15T16:29:14.216Z,4.53
2022-11-15T16:31:43.537Z,3.77
2022-11-15T16:34:12.692Z,3.77
2022-11-15T16:36:42.021Z,4.60
2022-11-15T16:39:14.283Z,5.30
2022-11-15T16:41:47.833Z,3.87
2022-11-15T16:44:17.027Z,6.50
2022-11-15T16:46:51.944Z,4.50
2022-11-15T16:49:22.006Z,3.87
2022-11-15T16:51:52.293Z,4.90
2022-11-15T16:54:21.948Z,4.60
2022-11-15T16:56:52.483Z,13.00
2022-11-15T16:59:21.625Z,4.20
2022-11-15T17:01:53.682Z,7.73
2022-11-15T17:04:22.915Z,6.33
2022-11-15T17:06:52.099Z,4.27
2022-11-15T17:09:24.560Z,5.23
2022-11-15T17:11:55.169Z,7.07
2022-11-15T17:14:24.485Z,3.60
2022-11-15T17:16:54.554Z,3.60
2022-11-15T17:19:23.868Z,3.40
2022-11-15T17:21:54.022Z,5.50
2022-11-15T17:24:23.427Z,4.90
2022-11-15T17:26:52.518Z,3.90
2022-11-15T17:29:23.086Z,3.00
2022-11-15T17:31:52.385Z,3.57
2022-11-15T17:34:21.612Z,8.30
2022-11-15T17:36:50.691Z,4.27
2022-11-15T17:39:21.109Z,4.40
2022-11-15T17:41:50.533Z,2.90
2022-11-15T17:44:19.666Z,5.57
2022-11-15T17:46:50.251Z,4.20
2022-11-15T17:49:19.526Z,4.30
2022-11-15T17:51:50.085Z,4.90
2022-11-15T17:54:19.736Z,3.67
2022-11-15T17:56:49.026Z,3.70
2022-11-15T17:59:21.413Z,3.07
2022-11-15T18:01:54.094Z,4.43
2022-11-15T18:04:28.371Z,5.40
2022-11-15T18:06:57.828Z,7.23
2022-11-15T18:09:27.156Z,5.70
2022-11-15T18:11:56.292Z,4.73
2022-11-15T18:14:26.351Z,5.20
2022-11-15T18:16:57.014Z,6.30
2022-11-15T18:19:26.184Z,7.20
2022-11-15T18:21:59.301Z,2.73
2022-11-15T18:24:29.525Z,5.03
2022-11-15T18:26:58.685Z,4.10
2022-11-15T18:29:28.183Z,7.60
2022-11-15T18:31:59.139Z,6.10
2022-11-15T18:34:32.412Z,6.97
2022-11-15T18:37:02.964Z,4.30
2022-11-15T18:39:32.418Z,3.80
2022-11-15T18:42:01.922Z,2.00
2022-11-15T18:44:31.359Z,2.40
2022-11-15T18:47:01.950Z,4.70
2022-11-15T18:49:31.111Z,4.50
2022-11-15T18:52:00.319Z,2.20
2022-11-15T18:54:31.498Z,2.63
2022-11-15T18:57:01.918Z,3.70
2022-11-15T18:59:31.470Z,2.63
2022-11-15T19:02:02.056Z,2.53
2022-11-15T19:04:31.348Z,2.60
2022-11-15T19:07:00.486Z,1.90
2022-11-15T19:09:32.944Z,2.77
2022-11-15T19:12:02.337Z,2.80
2022-11-15T19:14:33.832Z,3.00
2022-11-15T19:17:04.545Z,2.33
2022-11-15T19:19:33.794Z,2.43
2022-11-15T19:22:03.167Z,2.30
2022-11-15T19:24:32.758Z,2.40
2022-11-15T19:27:01.863Z,2.43
2022-11-15T19:29:31.005Z,3.00
2022-11-15T19:32:00.810Z,2.33
2022-11-15T19:34:31.403Z,2.30
2022-11-15T19:37:00.466Z,2.70
2022-11-15T19:39:29.562Z,1.90
2022-11-15T19:41:58.727Z,2.40
2022-11-15T19:44:27.858Z,2.03
2022-11-15T19:46:57.256Z,7.77
2022-11-15T19:49:26.323Z,2.57
2022-11-15T19:51:56.777Z,2.80
2022-11-15T19:54:26.051Z,2.40
2022-11-15T19:56:55.080Z,2.30
2022-11-15T19:59:24.393Z,1.90
2022-11-15T20:01:53.767Z,2.87
2022-11-15T20:04:22.975Z,2.47
2022-11-15T20:06:52.043Z,2.50
2022-11-15T20:09:22.519Z,2.63
2022-11-15T20:11:51.648Z,2.30
2022-11-15T20:14:20.778Z,2.63
2022-11-15T20:16:54.083Z,2.43
2022-11-15T20:19:23.984Z,7.10
2022-11-15T20:21:53.025Z,2.67
2022-11-15T20:24:23.647Z,3.00
2022-11-15T20:26:52.907Z,2.37
2022-11-15T20:29:22.139Z,2.40
2022-11-15T20:31:51.269Z,2.90
2022-11-15T20:34:20.415Z,2.73
2022-11-15T20:36:50.124Z,2.90
2022-11-15T20:39:19.433Z,2.70
2022-11-15T20:41:50.220Z,4.50
2022-11-15T20:44:19.657Z,2.70
2022-11-15T20:46:48.866Z,2.90
2022-11-15T20:49:18.063Z,3.20
2022-11-15T20:51:47.245Z,3.17
2022-11-15T20:54:16.597Z,2.80
2022-11-15T20:56:45.586Z,2.90
2022-11-15T20:59:16.238Z,2.93
2022-11-15T21:01:47.820Z,2.77
2022-11-15T21:04:17.171Z,3.20
2022-11-15T21:06:48.816Z,3.60
2022-11-15T21:09:36.199Z,2.87
2022-11-15T21:12:14.732Z,2.70
2022-11-15T21:14:46.774Z,3.10
2022-11-15T21:17:16.176Z,2.90
2022-11-15T21:19:45.579Z,3.77
2022-11-15T21:22:15.352Z,3.00
2022-11-15T21:24:44.441Z,8.47
2022-11-15T21:27:13.579Z,4.13
2022-11-15T21:29:45.866Z,3.40
2022-11-15T21:32:16.709Z,6.87
2022-11-15T21:34:45.797Z,3.20
2022-11-15T21:37:15.256Z,3.10
2022-11-15T21:39:44.384Z,2.93
2022-11-15T21:42:13.569Z,3.70
2022-11-15T21:44:42.741Z,3.07
2022-11-15T21:47:11.842Z,3.23
2022-11-15T21:49:42.367Z,2.83
2022-11-15T21:52:11.771Z,4.10
2022-11-15T21:54:41.713Z,3.10
2022-11-15T21:57:10.930Z,3.10
2022-11-15T22:00:00.197Z,3.03
2022-11-15T22:02:28.830Z,3.37
2022-11-15T22:04:59.406Z,3.10
2022-11-15T22:07:28.670Z,2.60
2022-11-15T22:09:59.088Z,3.10
2022-11-15T22:12:29.783Z,3.00
2022-11-15T22:14:59.137Z,3.30
2022-11-15T22:17:48.355Z,2.73
2022-11-15T22:23:09.151Z,3.30
2022-11-15T22:25:38.252Z,3.33
2022-11-15T22:28:07.655Z,3.23
2022-11-15T22:30:36.902Z,3.57
2022-11-15T22:33:06.654Z,2.77
2022-11-15T22:35:41.438Z,2.60
2022-11-15T22:38:11.449Z,2.30
2022-11-15T22:40:40.649Z,2.77
2022-11-15T22:43:09.802Z,2.33
2022-11-15T22:45:39.021Z,2.47
2022-11-15T22:48:08.143Z,2.40
2022-11-15T22:50:38.628Z,2.40
2022-11-15T22:53:07.919Z,1.90
2022-11-15T22:55:37.088Z,2.07
2022-11-15T22:58:06.219Z,2.17
2022-11-15T23:00:35.418Z,1.87
2022-11-15T23:03:05.093Z,1.80
2022-11-15T23:05:34.264Z,1.83
2022-11-15T23:08:04.944Z,1.67
2022-11-15T23:10:51.997Z,1.83
2022-11-15T23:13:21.361Z,1.83
2022-11-15T23:16:08.785Z,2.17
2022-11-15T23:18:38.502Z,1.83
2022-11-15T23:21:11.478Z,2.10
2022-11-15T23:23:41.236Z,1.60
2022-11-15T23:26:11.530Z,1.93
2022-11-15T23:28:40.700Z,1.70
2022-11-15T23:31:27.629Z,1.50
2022-11-15T23:33:59.571Z,1.70
2022-11-15T23:36:29.657Z,1.80
2022-11-15T23:39:00.334Z,2.00
2022-11-15T23:41:29.709Z,1.90
2022-11-15T23:43:58.956Z,1.90
2022-11-15T23:46:28.306Z,1.67
2022-11-15T23:48:57.407Z,1.70
2022-11-15T23:51:26.935Z,2.00
2022-11-15T23:53:56.018Z,2.00
2022-11-15T23:56:26.665Z,1.90
2022-11-15T23:58:55.746Z,2.07
